Time;durP1;ratioP1;P1;durP2;ratioP2;P2;SDS_P1;SDS_P2;PMS_P1;PMS_P2;Temp;Humidity;BMP_temperature;BMP_pressure;BME280_temperature;BME280_humidity;BME280_pressure;Samples;Min_cycle;Max_cycle;Signal;HPM_P1;HPM_P2
2023/02/03 00:00:37;;;;;;;;;;;;;;;;;;5021023;28;20413;-81
2023/02/03 00:03:03;;;;;;;;;;;;;;;;;;4993643;28;19916;-80
2023/02/03 00:05:29;;;;;;;;;;;;;;;;;;4998792;28;19925;-80
2023/02/03 00:07:55;;;;;;;;;;;;;;;;;;4986796;28;19976;-82
2023/02/03 00:10:21;;;;;;;;;;;;;;;;;;4987547;28;19951;-83
2023/02/03 00:12:47;;;;;;;;;;;;;;;;;;5013925;28;19917;-82
2023/02/03 00:15:13;;;;;;;;;;;;;;;;;;4997082;28;20413;-79
2023/02/03 00:17:39;;;;;;;;;;;;;;;;;;4996977;28;19963;-80
2023/02/03 00:20:05;;;;;;;;;;;;;;;;;;4999754;28;19949;-80
2023/02/03 00:22:31;;;;;;;;;;;;;;;;;;4999504;28;19928;-80
2023/02/03 00:24:57;;;;;;;;;;;;;;;;;;4999129;28;19921;-82
2023/02/03 00:27:23;;;;;;;;;;;;;;;;;;4986661;28;19921;-82
2023/02/03 00:29:49;;;;;;;;;;;;;;;;;;4999232;28;19917;-82
2023/02/03 00:32:14;;;;;;;;;;;;;;;;;;5011903;28;19925;-81
2023/02/03 00:34:40;;;;;;;;;;;;;;;;;;4996638;28;19916;-81
2023/02/03 00:37:06;;;;;;;;;;;;;;;;;;4984745;28;19917;-81
2023/02/03 00:39:32;;;;;;;;;;;;;;;;;;4984436;28;20559;-81
2023/02/03 00:41:58;;;;;;;;;;;;;;;;;;5019048;28;19917;-80
2023/02/03 00:44:24;;;;;;;;;;;;;;;;;;4981159;28;20072;-81
2023/02/03 00:46:50;;;;;;;;;;;;;;;;;;4995971;28;19935;-83
2023/02/03 00:49:16;;;;;;;;;;;;;;;;;;4996037;28;19917;-79
2023/02/03 00:51:42;;;;;;;;;;;;;;;;;;4999723;28;20387;-81
2023/02/03 00:54:08;;;;;;;;;;;;;;;;;;5014275;28;20359;-81
2023/02/03 00:56:34;;;;;;;;;;;;;;;;;;4998242;28;20365;-82
2023/02/03 00:58:59;;;;;;;;;;;;;;;;;;4996325;28;19925;-83
2023/02/03 01:01:26;;;;;;;;;;;;;;;;;;4999591;28;19952;-80
2023/02/03 01:03:51;;;;;;;;;;;;;;;;;;4997740;28;20574;-81
2023/02/03 01:06:17;;;;;;;;;;;;;;;;;;5003731;28;19971;-81
2023/02/03 01:08:43;;;;;;;;;;;;;;;;;;5007401;28;19967;-82
2023/02/03 01:11:09;;;;;;;;;;;;;;;;;;5010010;28;20016;-82
2023/02/03 01:13:35;;;;;;;;;;;;;;;;;;5020954;28;20390;-81
2023/02/03 01:16:01;;;;;;;;;;;;;;;;;;4993981;28;19921;-80
2023/02/03 01:18:27;;;;;;;;;;;;;;;;;;5018923;28;19917;-83
2023/02/03 01:20:53;;;;;;;;;;;;;;;;;;5002953;28;19917;-82
2023/02/03 01:23:19;;;;;;;;;;;;;;;;;;5014343;28;20042;-81
2023/02/03 01:25:45;;;;;;;;;;;;;;;;;;4992843;28;20126;-82
2023/02/03 01:28:11;;;;;;;;;;;;;;;;;;5008168;28;20621;-81
2023/02/03 01:30:37;;;;;;;;;;;;;;;;;;4999677;28;20004;-82
2023/02/03 01:33:02;;;;;;;;;;;;;;;;;;4985364;28;19936;-81
2023/02/03 01:35:28;;;;;;;;;;;;;;;;;;4988492;28;20376;-82
2023/02/03 01:37:54;;;;;;;;;;;;;;;;;;4989191;28;19971;-82
2023/02/03 01:40:20;;;;;;;;;;;;;;;;;;4992805;28;21509;-81
2023/02/03 01:42:46;;;;;;;;;;;;;;;;;;5013551;28;19916;-82
2023/02/03 01:45:12;;;;;;;;;;;;;;;;;;4999923;28;19935;-81
2023/02/03 01:47:38;;;;;;;;;;;;;;;;;;4986871;28;19925;-81
2023/02/03 01:50:06;;;;;;;;;;;;;;;;;;5014660;28;19931;-85
2023/02/03 01:52:32;;;;;;;;;;;;;;;;;;5002175;28;20340;-80
2023/02/03 01:54:58;;;;;;;;;;;;;;;;;;4995083;28;20024;-79
2023/02/03 01:57:24;;;;;;;;;;;;;;;;;;4977956;28;20277;-80
2023/02/03 01:59:50;;;;;;;;;;;;;;;;;;4982707;28;20534;-82
2023/02/03 02:02:16;;;;;;;;;;;;;;;;;;4982966;28;19917;-81
2023/02/03 02:04:42;;;;;;;;;;;;;;;;;;4983456;28;19955;-81
2023/02/03 02:07:08;;;;;;;;;;;;;;;;;;4991291;28;19933;-79
2023/02/03 02:09:34;;;;;;;;;;;;;;;;;;4992548;28;20233;-83
2023/02/03 02:12:00;;;;;;;;;;;;;;;;;;4996143;28;20008;-83
2023/02/03 02:14:26;;;;;;;;;;;;;;;;;;4982989;28;19917;-81
2023/02/03 02:16:51;;;;;;;;;;;;;;;;;;4997796;28;19954;-81
2023/02/03 02:19:17;;;;;;;;;;;;;;;;;;5000190;28;19917;-80
2023/02/03 02:21:43;;;;;;;;;;;;;;;;;;4998354;28;20330;-82
2023/02/03 02:24:09;;;;;;;;;;;;;;;;;;4978153;28;20464;-80
2023/02/03 02:26:35;;;;;;;;;;;;;;;;;;4992748;28;19921;-81
2023/02/03 02:29:01;;;;;;;;;;;;;;;;;;4997506;28;19990;-81
2023/02/03 02:31:27;;;;;;;;;;;;;;;;;;5016292;28;19925;-81
2023/02/03 02:33:53;;;;;;;;;;;;;;;;;;5013436;28;19925;-80
2023/02/03 02:36:19;;;;;;;;;;;;;;;;;;5009987;28;19952;-82
2023/02/03 02:38:45;;;;;;;;;;;;;;;;;;4992292;28;20354;-81
2023/02/03 02:41:11;;;;;;;;;;;;;;;;;;4995700;28;20012;-81
2023/02/03 02:43:37;;;;;;;;;;;;;;;;;;4979037;28;20371;-82
2023/02/03 02:46:03;;;;;;;;;;;;;;;;;;5008903;28;19925;-82
2023/02/03 02:48:28;;;;;;;;;;;;;;;;;;4996079;28;20375;-82
2023/02/03 02:50:54;;;;;;;;;;;;;;;;;;4979694;28;19947;-80
2023/02/03 02:53:20;;;;;;;;;;;;;;;;;;4982283;28;19956;-79
2023/02/03 02:55:46;;;;;;;;;;;;;;;;;;4998983;28;19943;-83
2023/02/03 02:58:12;;;;;;;;;;;;;;;;;;4998623;28;20397;-80
2023/02/03 03:00:39;;;;;;;;;;;;;;;;;;4983966;28;19948;-83
2023/02/03 03:03:07;;;;;;;;;;;;;;;;;;5019873;28;19920;-82
2023/02/03 03:05:33;;;;;;;;;;;;;;;;;;4986909;28;20371;-82
2023/02/03 03:08:01;;;;;;;;;;;;;;;;;;5019288;28;19928;-81
2023/02/03 03:10:27;;;;;;;;;;;;;;;;;;4999306;28;19921;-80
2023/02/03 03:12:53;;;;;;;;;;;;;;;;;;4981298;28;19997;-82
2023/02/03 03:15:21;;;;;;;;;;;;;;;;;;4990206;28;19921;-81
2023/02/03 03:17:47;;;;;;;;;;;;;;;;;;5001114;28;20430;-84
2023/02/03 03:20:12;;;;;;;;;;;;;;;;;;5001302;28;19920;-83
2023/02/03 03:22:38;;;;;;;;;;;;;;;;;;5002176;28;19943;-81
2023/02/03 03:25:04;;;;;;;;;;;;;;;;;;4982704;28;20028;-83
2023/02/03 03:27:30;;;;;;;;;;;;;;;;;;5018177;28;19921;-83
2023/02/03 03:29:56;;;;;;;;;;;;;;;;;;5015773;28;19918;-82
2023/02/03 03:32:22;;;;;;;;;;;;;;;;;;4996635;28;19924;-82
2023/02/03 03:34:48;;;;;;;;;;;;;;;;;;5013207;28;19925;-81
2023/02/03 03:37:14;;;;;;;;;;;;;;;;;;5024493;28;19920;-82
2023/02/03 03:39:40;;;;;;;;;;;;;;;;;;4998567;28;20555;-81
2023/02/03 03:42:06;;;;;;;;;;;;;;;;;;5032954;28;19921;-81
2023/02/03 03:44:31;;;;;;;;;;;;;;;;;;5001523;28;19922;-82
2023/02/03 03:46:57;;;;;;;;;;;;;;;;;;4997928;28;19921;-84
2023/02/03 03:49:23;;;;;;;;;;;;;;;;;;5023720;28;19924;-83
2023/02/03 03:51:49;;;;;;;;;;;;;;;;;;4990050;28;20436;-80
2023/02/03 03:54:15;;;;;;;;;;;;;;;;;;5000391;28;19917;-83
2023/02/03 03:56:41;;;;;;;;;;;;;;;;;;4979739;28;19921;-85
2023/02/03 03:59:07;;;;;;;;;;;;;;;;;;4999602;28;20008;-83
2023/02/03 04:01:33;;;;;;;;;;;;;;;;;;4995971;28;19931;-82
2023/02/03 04:03:59;;;;;;;;;;;;;;;;;;4999425;28;19922;-85
2023/02/03 04:06:25;;;;;;;;;;;;;;;;;;4984748;28;20165;-81
2023/02/03 04:08:51;;;;;;;;;;;;;;;;;;5000424;28;19921;-82
2023/02/03 04:12:00;;;;;;;;;;;;;;;;;;5000739;28;20295;-81
2023/02/03 04:14:02;;;;;;;;;;;;;;;;;;5005854;28;20298;-80
2023/02/03 04:16:28;;;;;;;;;;;;;;;;;;5003229;28;20028;-81
2023/02/03 04:18:54;;;;;;;;;;;;;;;;;;5018111;28;19927;-83
2023/02/03 04:21:20;;;;;;;;;;;;;;;;;;5021914;28;19924;-81
2023/02/03 04:23:46;;;;;;;;;;;;;;;;;;5001728;28;19922;-82
2023/02/03 04:26:12;;;;;;;;;;;;;;;;;;5019591;28;19928;-83
2023/02/03 04:28:38;;;;;;;;;;;;;;;;;;4994703;28;19928;-84
2023/02/03 04:31:04;;;;;;;;;;;;;;;;;;5001711;28;19921;-81
2023/02/03 04:33:30;;;;;;;;;;;;;;;;;;5016260;28;19925;-82
2023/02/03 04:35:56;;;;;;;;;;;;;;;;;;5004547;28;19929;-84
2023/02/03 04:38:22;;;;;;;;;;;;;;;;;;5003945;28;19932;-80
2023/02/03 04:40:48;;;;;;;;;;;;;;;;;;5033940;28;19921;-82
2023/02/03 04:43:15;;;;;;;;;;;;;;;;;;5016492;28;19928;-83
2023/02/03 04:45:41;;;;;;;;;;;;;;;;;;4978717;28;20489;-82
2023/02/03 04:48:07;;;;;;;;;;;;;;;;;;4993327;28;19940;-82
2023/02/03 04:50:33;;;;;;;;;;;;;;;;;;4996066;28;20015;-82
2023/02/03 04:53:00;;;;;;;;;;;;;;;;;;5017023;28;20421;-84
2023/02/03 04:55:25;;;;;;;;;;;;;;;;;;4998158;28;19967;-83
2023/02/03 04:57:51;;;;;;;;;;;;;;;;;;5006152;28;19917;-84
2023/02/03 05:00:17;;;;;;;;;;;;;;;;;;5015780;28;19917;-84
2023/02/03 05:02:43;;;;;;;;;;;;;;;;;;4983581;28;21071;-82
2023/02/03 05:05:09;;;;;;;;;;;;;;;;;;4995135;28;19983;-83
2023/02/03 05:07:35;;;;;;;;;;;;;;;;;;5000972;23;19917;-72
2023/02/03 05:10:01;;;;;;;;;;;;;;;;;;5000061;28;19972;-71
2023/02/03 05:12:27;;;;;;;;;;;;;;;;;;5002533;28;20007;-72
2023/02/03 05:14:53;;;;;;;;;;;;;;;;;;5007835;28;20400;-73
2023/02/03 05:17:19;;;;;;;;;;;;;;;;;;4994274;28;19924;-72
2023/02/03 05:19:44;;;;;;;;;;;;;;;;;;5014308;28;19933;-73
2023/02/03 05:22:10;;;;;;;;;;;;;;;;;;5000404;28;20019;-72
2023/02/03 05:24:36;;;;;;;;;;;;;;;;;;5014029;28;20011;-73
2023/02/03 05:27:02;;;;;;;;;;;;;;;;;;5010340;28;20338;-71
2023/02/03 05:29:28;;;;;;;;;;;;;;;;;;5025186;28;19923;-73
2023/02/03 05:31:54;;;;;;;;;;;;;;;;;;5009063;28;19925;-71
2023/02/03 05:34:20;;;;;;;;;;;;;;;;;;5005444;28;19952;-75
2023/02/03 05:36:46;;;;;;;;;;;;;;;;;;5003860;28;19916;-71
2023/02/03 05:39:12;;;;;;;;;;;;;;;;;;5001644;28;19921;-75
2023/02/03 05:41:53;;;;;;;;;;;;;;;;;;5007005;28;20359;-71
2023/02/03 05:44:19;;;;;;;;;;;;;;;;;;5011600;28;19936;-71
2023/02/03 05:46:45;;;;;;;;;;;;;;;;;;5006024;28;19925;-71
2023/02/03 05:49:11;;;;;;;;;;;;;;;;;;4996398;28;20408;-74
2023/02/03 05:51:37;;;;;;;;;;;;;;;;;;5009815;28;19924;-73
2023/02/03 05:54:03;;;;;;;;;;;;;;;;;;5010478;28;19988;-73
2023/02/03 05:56:29;;;;;;;;;;;;;;;;;;5011424;28;20363;-72
2023/02/03 05:58:55;;;;;;;;;;;;;;;;;;5012534;28;19921;-72
2023/02/03 06:01:21;;;;;;;;;;;;;;;;;;5007921;28;19916;-72
2023/02/03 06:03:46;;;;;;;;;;;;;;;;;;5009544;28;19924;-73
2023/02/03 06:06:12;;;;;;;;;;;;;;;;;;5013969;28;20068;-73
2023/02/03 06:08:38;;;;;;;;;;;;;;;;;;5007314;28;19931;-74
2023/02/03 06:11:04;;;;;;;;;;;;;;;;;;5011718;28;19921;-74
2023/02/03 06:13:30;;;;;;;;;;;;;;;;;;4988119;28;20016;-72
2023/02/03 06:15:56;;;;;;;;;;;;;;;;;;5021843;28;20287;-74
2023/02/03 06:18:22;;;;;;;;;;;;;;;;;;5024588;28;19916;-72
2023/02/03 06:20:48;;;;;;;;;;;;;;;;;;5009491;28;20379;-73
2023/02/03 06:23:16;;;;;;;;;;;;;;;;;;5017265;28;20224;-73
2023/02/03 06:25:41;;;;;;;;;;;;;;;;;;5024054;28;19927;-72
2023/02/03 06:28:07;;;;;;;;;;;;;;;;;;5025990;28;19917;-73
2023/02/03 06:30:33;;;;;;;;;;;;;;;;;;5012363;28;20031;-73
2023/02/03 06:32:59;;;;;;;;;;;;;;;;;;5024629;28;20373;-74
2023/02/03 06:35:25;;;;;;;;;;;;;;;;;;5024933;28;19916;-74
2023/02/03 06:37:51;;;;;;;;;;;;;;;;;;5023330;28;19928;-73
2023/02/03 06:40:17;;;;;;;;;;;;;;;;;;5021375;28;19920;-75
2023/02/03 06:42:43;;;;;;;;;;;;;;;;;;5023147;28;19932;-72
2023/02/03 06:45:09;;;;;;;;;;;;;;;;;;5023415;28;20272;-77
2023/02/03 06:47:35;;;;;;;;;;;;;;;;;;5024996;28;19967;-74
2023/02/03 06:50:00;;;;;;;;;;;;;;;;;;5025548;28;19927;-73
2023/02/03 06:52:26;;;;;;;;;;;;;;;;;;5024379;28;19989;-75
2023/02/03 06:54:52;;;;;;;;;;;;;;;;;;5016775;28;19978;-74
2023/02/03 06:57:18;;;;;;;;;;;;;;;;;;5025182;28;19948;-75
2023/02/03 06:59:44;;;;;;;;;;;;;;;;;;5017883;28;20015;-73
2023/02/03 07:02:10;;;;;;;;;;;;;;;;;;5006710;28;20348;-75
2023/02/03 07:04:37;;;;;;;;;;;;;;;;;;5010154;28;20429;-72
2023/02/03 07:07:03;;;;;;;;;;;;;;;;;;5020950;28;19928;-73
2023/02/03 07:09:29;;;;;;;;;;;;;;;;;;5008182;28;19940;-73
2023/02/03 07:11:55;;;;;;;;;;;;;;;;;;5028165;28;19917;-73
2023/02/03 07:14:21;;;;;;;;;;;;;;;;;;5018840;28;19943;-74
2023/02/03 07:16:47;;;;;;;;;;;;;;;;;;5023619;28;19970;-73
2023/02/03 07:19:13;;;;;;;;;;;;;;;;;;5028594;28;20007;-73
2023/02/03 07:21:39;;;;;;;;;;;;;;;;;;5024164;28;20015;-72
2023/02/03 07:24:04;;;;;;;;;;;;;;;;;;5016881;28;19921;-73
2023/02/03 07:26:30;;;;;;;;;;;;;;;;;;5022614;28;19924;-74
2023/02/03 07:28:58;;;;;;;;;;;;;;;;;;5027142;28;20622;-73
2023/02/03 07:31:24;;;;;;;;;;;;;;;;;;5026626;28;20306;-73
2023/02/03 07:33:50;;;;;;;;;;;;;;;;;;5002622;28;19924;-73
2023/02/03 07:36:16;;;;;;;;;;;;;;;;;;5029720;28;19917;-73
2023/02/03 07:38:42;;;;;;;;;;;;;;;;;;5029460;28;20007;-73
2023/02/03 07:41:08;;;;;;;;;;;;;;;;;;5029347;28;19923;-73
2023/02/03 07:43:34;;;;;;;;;;;;;;;;;;5021817;28;20006;-74
2023/02/03 07:46:00;;;;;;;;;;;;;;;;;;5028404;28;19932;-74
2023/02/03 07:48:26;;;;;;;;;;;;;;;;;;5026922;28;20318;-74
2023/02/03 07:50:52;;;;;;;;;;;;;;;;;;5026478;28;19920;-73
2023/02/03 07:53:18;;;;;;;;;;;;;;;;;;5028856;28;19917;-74
2023/02/03 07:55:44;;;;;;;;;;;;;;;;;;5030377;28;20379;-74
2023/02/03 07:58:10;;;;;;;;;;;;;;;;;;5025336;28;19962;-75
2023/02/03 08:00:36;;;;;;;;;;;;;;;;;;5029446;28;20391;-74
2023/02/03 08:03:03;;;;;;;;;;;;;;;;;;5028368;28;20003;-75
2023/02/03 08:05:29;;;;;;;;;;;;;;;;;;5025296;28;19927;-74
2023/02/03 08:07:55;;;;;;;;;;;;;;;;;;5025682;28;19924;-74
2023/02/03 08:10:20;;;;;;;;;;;;;;;;;;5025310;28;19947;-75
2023/02/03 08:12:46;;;;;;;;;;;;;;;;;;5027246;28;19916;-78
2023/02/03 08:15:12;;;;;;;;;;;;;;;;;;5027168;28;19925;-74
2023/02/03 08:17:40;;;;;;;;;;;;;;;;;;5023049;28;19924;-74
2023/02/03 08:20:06;;;;;;;;;;;;;;;;;;5017067;28;19925;-75
2023/02/03 08:22:31;;;;;;;;;;;;;;;;;;5025418;28;20481;-77
2023/02/03 08:24:57;;;;;;;;;;;;;;;;;;5027068;28;19952;-76
2023/02/03 08:27:23;;;;;;;;;;;;;;;;;;5026068;28;20015;-74
2023/02/03 08:29:49;;;;;;;;;;;;;;;;;;5026028;28;19931;-75
2023/02/03 08:32:15;;;;;;;;;;;;;;;;;;5020408;28;19923;-75
2023/02/03 08:34:41;;;;;;;;;;;;;;;;;;5028362;28;19917;-75
2023/02/03 08:37:07;;;;;;;;;;;;;;;;;;5004581;28;20336;-75
2023/02/03 08:39:33;;;;;;;;;;;;;;;;;;5027564;28;19928;-76
2023/02/03 08:41:59;;;;;;;;;;;;;;;;;;5029090;28;19928;-74
2023/02/03 08:44:25;;;;;;;;;;;;;;;;;;5030856;28;19947;-75
2023/02/03 08:46:51;;;;;;;;;;;;;;;;;;5022776;28;19959;-75
2023/02/03 08:49:16;;;;;;;;;;;;;;;;;;5046456;28;19917;-75
2023/02/03 08:51:42;;;;;;;;;;;;;;;;;;5026709;28;19916;-76
2023/02/03 08:54:08;;;;;;;;;;;;;;;;;;5030012;28;20459;-75
2023/02/03 08:56:34;;;;;;;;;;;;;;;;;;5026321;28;19920;-74
2023/02/03 08:59:00;;;;;;;;;;;;;;;;;;5041443;28;19929;-74
2023/02/03 09:01:26;;;;;;;;;;;;;;;;;;5027277;28;19917;-76
2023/02/03 09:03:52;;;;;;;;;;;;;;;;;;5024411;28;19925;-75
2023/02/03 09:06:18;;;;;;;;;;;;;;;;;;5026548;28;20367;-74
2023/02/03 09:08:44;;;;;;;;;;;;;;;;;;5028179;28;19979;-75
2023/02/03 09:11:10;;;;;;;;;;;;;;;;;;5030072;28;19921;-74
2023/02/03 09:13:37;;;;;;;;;;;;;;;;;;5021330;28;19987;-74
2023/02/03 09:16:03;;;;;;;;;;;;;;;;;;5012463;28;20275;-75
2023/02/03 09:18:29;;;;;;;;;;;;;;;;;;5012952;28;19931;-75
2023/02/03 09:20:55;;;;;;;;;;;;;;;;;;5027269;28;19979;-75
2023/02/03 09:23:21;;;;;;;;;;;;;;;;;;5025188;28;19948;-76
2023/02/03 09:25:47;;;;;;;;;;;;;;;;;;5028440;28;20016;-75
2023/02/03 09:28:13;;;;;;;;;;;;;;;;;;5028694;28;20482;-75
2023/02/03 09:30:39;;;;;;;;;;;;;;;;;;5023073;28;19956;-75
2023/02/03 09:33:04;;;;;;;;;;;;;;;;;;5005218;28;19967;-75
2023/02/03 09:35:30;;;;;;;;;;;;;;;;;;5024630;28;19997;-76
2023/02/03 09:37:56;;;;;;;;;;;;;;;;;;5025366;28;19917;-76
2023/02/03 09:40:22;;;;;;;;;;;;;;;;;;5030490;28;19955;-76
2023/02/03 09:42:49;;;;;;;;;;;;;;;;;;5026644;28;19971;-76
2023/02/03 09:45:15;;;;;;;;;;;;;;;;;;5027339;28;19924;-76
2023/02/03 09:47:41;;;;;;;;;;;;;;;;;;5017138;28;19981;-74
2023/02/03 09:50:07;;;;;;;;;;;;;;;;;;5022025;28;20349;-75
2023/02/03 09:52:33;;;;;;;;;;;;;;;;;;5027794;28;20018;-74
2023/02/03 09:54:59;;;;;;;;;;;;;;;;;;5011619;28;19925;-77
2023/02/03 09:57:25;;;;;;;;;;;;;;;;;;5008865;28;19920;-74
2023/02/03 09:59:51;;;;;;;;;;;;;;;;;;5024187;28;19985;-76
2023/02/03 10:02:17;;;;;;;;;;;;;;;;;;5027899;28;19927;-75
2023/02/03 10:04:43;;;;;;;;;;;;;;;;;;5003735;28;19921;-76
2023/02/03 10:07:08;;;;;;;;;;;;;;;;;;5025024;28;20387;-75
2023/02/03 10:09:36;;;;;;;;;;;;;;;;;;5026930;28;19931;-74
2023/02/03 10:12:02;;;;;;;;;;;;;;;;;;5023537;28;19920;-75
2023/02/03 10:14:28;;;;;;;;;;;;;;;;;;5021220;28;19917;-74
2023/02/03 10:16:54;;;;;;;;;;;;;;;;;;5024097;28;19969;-75
2023/02/03 10:19:20;;;;;;;;;;;;;;;;;;5040159;28;19925;-74
2023/02/03 10:21:46;;;;;;;;;;;;;;;;;;5042271;28;20299;-76
2023/02/03 10:24:12;;;;;;;;;;;;;;;;;;5028627;28;19928;-74
2023/02/03 10:26:37;;;;;;;;;;;;;;;;;;5028440;28;19970;-76
2023/02/03 10:29:03;;;;;;;;;;;;;;;;;;5026661;28;19978;-74
2023/02/03 10:31:29;;;;;;;;;;;;;;;;;;5028934;28;19917;-75
2023/02/03 10:33:55;;;;;;;;;;;;;;;;;;5025402;28;19963;-75
2023/02/03 10:36:21;;;;;;;;;;;;;;;;;;5025021;28;20058;-75
2023/02/03 10:38:47;;;;;;;;;;;;;;;;;;5006748;28;19983;-75
2023/02/03 10:41:13;;;;;;;;;;;;;;;;;;5032002;28;19923;-75
2023/02/03 10:43:50;;;;;;;;;;;;;;;;;;5010908;28;20682;-76
2023/02/03 10:46:16;;;;;;;;;;;;;;;;;;5025179;28;20341;-74
2023/02/03 10:48:42;;;;;;;;;;;;;;;;;;5025218;28;19917;-74
2023/02/03 10:51:08;;;;;;;;;;;;;;;;;;5027465;28;19923;-74
2023/02/03 10:53:34;;;;;;;;;;;;;;;;;;5027923;28;19931;-74
2023/02/03 10:56:00;;;;;;;;;;;;;;;;;;5026288;28;20256;-77
2023/02/03 10:58:26;;;;;;;;;;;;;;;;;;5026179;28;19983;-73
2023/02/03 11:00:52;;;;;;;;;;;;;;;;;;5025461;28;19920;-75
2023/02/03 11:03:18;;;;;;;;;;;;;;;;;;5008266;28;20515;-75
2023/02/03 11:05:44;;;;;;;;;;;;;;;;;;5024251;28;20480;-75
2023/02/03 11:08:10;;;;;;;;;;;;;;;;;;5019280;23;19929;-86
2023/02/03 11:10:36;;;;;;;;;;;;;;;;;;4978888;28;20472;-84
2023/02/03 11:13:02;;;;;;;;;;;;;;;;;;4994031;28;20011;-83
2023/02/03 11:15:34;;;;;;;;;;;;;;;;;;5000094;28;19977;-83
2023/02/03 11:18:00;;;;;;;;;;;;;;;;;;4981493;28;19917;-83
2023/02/03 11:20:27;;;;;;;;;;;;;;;;;;4979428;28;20012;-84
2023/02/03 11:22:53;;;;;;;;;;;;;;;;;;4978301;28;19976;-83
2023/02/03 11:25:19;;;;;;;;;;;;;;;;;;4975710;28;19917;-84
2023/02/03 11:27:48;;;;;;;;;;;;;;;;;;4997246;28;19961;-84
2023/02/03 11:30:14;;;;;;;;;;;;;;;;;;4976353;28;19960;-86
2023/02/03 11:32:43;;;;;;;;;;;;;;;;;;4977034;28;19917;-86
2023/02/03 11:35:09;;;;;;;;;;;;;;;;;;4973317;28;19925;-85
2023/02/03 11:37:35;;;;;;;;;;;;;;;;;;4993646;28;19980;-83
2023/02/03 11:40:01;;;;;;;;;;;;;;;;;;4987920;28;19921;-84
2023/02/03 11:42:27;;;;;;;;;;;;;;;;;;4993069;28;20361;-84
2023/02/03 11:44:53;;;;;;;;;;;;;;;;;;4971331;28;19924;-83
2023/02/03 11:47:19;;;;;;;;;;;;;;;;;;4976587;28;19925;-83
2023/02/03 11:49:45;;;;;;;;;;;;;;;;;;4992879;28;20068;-83
2023/02/03 11:52:13;;;;;;;;;;;;;;;;;;4974542;28;19918;-82
2023/02/03 11:54:39;;;;;;;;;;;;;;;;;;4973364;28;19935;-83
2023/02/03 11:57:05;;;;;;;;;;;;;;;;;;4989584;28;19924;-81
2023/02/03 11:59:31;;;;;;;;;;;;;;;;;;4973903;28;19945;-82
2023/02/03 12:01:57;;;;;;;;;;;;;;;;;;4991512;28;19924;-83
2023/02/03 12:04:23;;;;;;;;;;;;;;;;;;4972155;28;19948;-84
2023/02/03 12:06:49;;;;;;;;;;;;;;;;;;4987880;28;20039;-82
2023/02/03 12:09:16;;;;;;;;;;;;;;;;;;4975809;28;20004;-83
2023/02/03 12:11:42;;;;;;;;;;;;;;;;;;4992862;28;20004;-84
2023/02/03 12:14:08;;;;;;;;;;;;;;;;;;4987154;28;20059;-82
2023/02/03 12:16:34;;;;;;;;;;;;;;;;;;4988431;28;20019;-82
2023/02/03 12:19:00;;;;;;;;;;;;;;;;;;4967132;28;19917;-83
2023/02/03 12:21:26;;;;;;;;;;;;;;;;;;4969262;28;19917;-82
2023/02/03 12:23:52;;;;;;;;;;;;;;;;;;4968972;28;19992;-85
2023/02/03 12:26:18;;;;;;;;;;;;;;;;;;4976421;28;19921;-82
2023/02/03 12:28:46;;;;;;;;;;;;;;;;;;4972627;28;19921;-83
2023/02/03 12:31:12;;;;;;;;;;;;;;;;;;4980270;28;19921;-85
2023/02/03 12:33:43;;;;;;;;;;;;;;;;;;4975214;28;19921;-84
2023/02/03 12:36:09;;;;;;;;;;;;;;;;;;4977051;28;19925;-81
2023/02/03 12:38:34;;;;;;;;;;;;;;;;;;4997844;28;19922;-84
2023/02/03 12:41:00;;;;;;;;;;;;;;;;;;4977661;28;19924;-83
2023/02/03 12:43:26;;;;;;;;;;;;;;;;;;4975471;28;19917;-83
2023/02/03 12:45:52;;;;;;;;;;;;;;;;;;4979759;28;20300;-84
2023/02/03 12:48:18;;;;;;;;;;;;;;;;;;4989105;28;19921;-81
2023/02/03 12:50:44;;;;;;;;;;;;;;;;;;4990822;28;19928;-83
2023/02/03 12:53:10;;;;;;;;;;;;;;;;;;4966436;28;19921;-83
2023/02/03 12:55:36;;;;;;;;;;;;;;;;;;4973783;28;19943;-81
2023/02/03 12:58:02;;;;;;;;;;;;;;;;;;4975008;28;19917;-83
2023/02/03 13:00:28;;;;;;;;;;;;;;;;;;4989647;28;19996;-81
2023/02/03 13:02:54;;;;;;;;;;;;;;;;;;4977914;28;19917;-82
2023/02/03 13:05:20;;;;;;;;;;;;;;;;;;4974960;28;19996;-83
2023/02/03 13:07:46;;;;;;;;;;;;;;;;;;4977169;28;19949;-83
2023/02/03 13:10:12;;;;;;;;;;;;;;;;;;4973934;28;19921;-81
2023/02/03 13:12:38;;;;;;;;;;;;;;;;;;4972725;28;19918;-83
2023/02/03 13:15:04;;;;;;;;;;;;;;;;;;4972784;28;20310;-83
2023/02/03 13:17:29;;;;;;;;;;;;;;;;;;4975993;28;19921;-82
2023/02/03 13:19:55;;;;;;;;;;;;;;;;;;4978384;28;19924;-85
2023/02/03 13:22:25;;;;;;;;;;;;;;;;;;4972538;28;19928;-83
2023/02/03 13:24:51;;;;;;;;;;;;;;;;;;4981935;28;20344;-85
2023/02/03 13:27:20;;;;;;;;;;;;;;;;;;4975829;28;19933;-85
2023/02/03 13:29:46;;;;;;;;;;;;;;;;;;4980804;28;20015;-83
2023/02/03 13:32:12;;;;;;;;;;;;;;;;;;4982677;28;19921;-82
2023/02/03 13:34:41;;;;;;;;;;;;;;;;;;4990373;28;20012;-83
2023/02/03 13:37:07;;;;;;;;;;;;;;;;;;4971188;28;20047;-84
2023/02/03 13:39:39;;;;;;;;;;;;;;;;;;4968492;28;19963;-85
2023/02/03 13:42:05;;;;;;;;;;;;;;;;;;4973407;28;19921;-82
2023/02/03 13:44:31;;;;;;;;;;;;;;;;;;4975397;28;19921;-87
2023/02/03 13:46:57;;;;;;;;;;;;;;;;;;4989870;28;19949;-83
2023/02/03 13:49:23;;;;;;;;;;;;;;;;;;4971182;28;19948;-81
2023/02/03 13:51:51;;;;;;;;;;;;;;;;;;4969996;28;20281;-81
2023/02/03 13:54:20;;;;;;;;;;;;;;;;;;4974432;28;19921;-81
2023/02/03 13:56:46;;;;;;;;;;;;;;;;;;4966892;28;19917;-83
2023/02/03 13:59:12;;;;;;;;;;;;;;;;;;4969984;28;19928;-85
2023/02/03 14:01:38;;;;;;;;;;;;;;;;;;4975512;28;19932;-83
2023/02/03 14:04:04;;;;;;;;;;;;;;;;;;4975846;28;20451;-79
2023/02/03 14:06:30;;;;;;;;;;;;;;;;;;4992559;28;19929;-81
2023/02/03 14:08:56;;;;;;;;;;;;;;;;;;4991735;28;19928;-83
2023/02/03 14:11:22;;;;;;;;;;;;;;;;;;4993159;28;19926;-85
2023/02/03 14:13:51;;;;;;;;;;;;;;;;;;4970849;28;19928;-81
2023/02/03 14:16:17;;;;;;;;;;;;;;;;;;4973962;28;19918;-78
2023/02/03 14:18:43;;;;;;;;;;;;;;;;;;4990152;28;20434;-84
2023/02/03 14:21:09;;;;;;;;;;;;;;;;;;4977405;28;19925;-85
2023/02/03 14:23:35;;;;;;;;;;;;;;;;;;4990595;28;19921;-84
2023/02/03 14:26:01;;;;;;;;;;;;;;;;;;4973957;28;20193;-83
2023/02/03 14:28:30;;;;;;;;;;;;;;;;;;4998682;28;19917;-84
2023/02/03 14:30:59;;;;;;;;;;;;;;;;;;4986824;28;20439;-82
2023/02/03 14:33:25;;;;;;;;;;;;;;;;;;4976343;28;20002;-83
2023/02/03 14:35:51;;;;;;;;;;;;;;;;;;4971768;28;19956;-80
2023/02/03 14:38:20;;;;;;;;;;;;;;;;;;4981655;28;20389;-80
2023/02/03 14:40:46;;;;;;;;;;;;;;;;;;4972071;28;19924;-80
2023/02/03 14:43:12;;;;;;;;;;;;;;;;;;5002637;28;19924;-81
2023/02/03 14:45:38;;;;;;;;;;;;;;;;;;4991862;28;19922;-83
2023/02/03 14:48:04;;;;;;;;;;;;;;;;;;4994627;28;19926;-83
2023/02/03 14:50:30;;;;;;;;;;;;;;;;;;4994533;28;19928;-82
2023/02/03 14:52:56;;;;;;;;;;;;;;;;;;4994588;28;19917;-83
2023/02/03 14:55:22;;;;;;;;;;;;;;;;;;4993494;28;20358;-83
2023/02/03 14:57:48;;;;;;;;;;;;;;;;;;4979801;28;20308;-80
2023/02/03 15:00:14;;;;;;;;;;;;;;;;;;5010542;28;19917;-85
2023/02/03 15:02:40;;;;;;;;;;;;;;;;;;4973263;28;19922;-84
2023/02/03 15:05:06;;;;;;;;;;;;;;;;;;4981331;28;19928;-82
2023/02/03 15:07:32;;;;;;;;;;;;;;;;;;4978238;28;19930;-84
2023/02/03 15:09:58;;;;;;;;;;;;;;;;;;4979832;28;20580;-83
2023/02/03 15:12:25;;;;;;;;;;;7.40;99.90;;;;;;4981718;28;19922;-83
2023/02/03 15:14:51;;;;;;;;;;;8.50;99.90;;;;;;5011185;28;19917;-85
2023/02/03 15:17:22;;;;;;;;;;;8.50;99.90;;;;;;4975715;28;19917;-81
2023/02/03 15:19:48;;;;;;;;;;;8.50;99.90;;;;;;4994920;28;20282;-84
2023/02/03 15:22:26;;;;;;;;;;;8.40;99.90;;;;;;5001842;28;19918;-80
2023/02/03 15:25:03;;;;;;;;;;;8.50;99.90;;;;;;4977807;28;19952;-84
2023/02/03 15:27:41;;;;;;;;;;;8.40;99.90;;;;;;4978408;28;19922;-84
2023/02/03 15:30:16;;;;;;;;;;;8.40;99.90;;;;;;4994379;28;20465;-84
2023/02/03 15:32:48;;;;;;;;;;;8.40;99.90;;;;;;5013153;28;19970;-84
2023/02/03 15:35:19;;;;;;;;;;;8.40;99.90;;;;;;4985203;28;20012;-84
2023/02/03 15:37:51;;;;;;;;;;;8.30;99.90;;;;;;4967225;28;19925;-82
2023/02/03 15:40:22;;;;;;;;;;;8.30;99.90;;;;;;4975606;28;19921;-83
2023/02/03 15:43:26;;;;;;;;;;;8.30;99.90;;;;;;4989485;28;20012;-83
2023/02/03 15:46:00;;;;;;;;;;;8.30;99.90;;;;;;4914457;29;20695;-85
2023/02/03 15:48:36;;;;;;;;;;;8.30;99.90;;;;;;4923383;29;19922;-82
2023/02/03 15:51:02;;;;;;;;;;;;;;;;;;4947565;28;19924;-84
2023/02/03 15:53:28;;;;;;;;;;;;;;;;;;4985495;28;19943;-83
2023/02/03 15:55:54;;;;;;;;;;;;;;;;;;4995071;28;20353;-82
2023/02/03 15:58:22;;;;;;;;;;;;;;;;;;4992208;28;19921;-82
2023/02/03 16:00:48;;;;;;;;;;;;;;;;;;4997633;28;19924;-84
2023/02/03 16:03:14;;;;;;;;;;;;;;;;;;4988129;28;19921;-85
2023/02/03 16:05:43;;;;;;;;;;;;;;;;;;4987715;28;19921;-85
2023/02/03 16:08:09;;;;;;;;;;;;;;;;;;4967217;28;19929;-84
2023/02/03 16:10:35;;;;;;;;;;;;;;;;;;4969457;28;19990;-84
2023/02/03 16:13:01;;;;;;;;;;;;;;;;;;4981913;28;20041;-85
2023/02/03 16:15:27;;;;;;;;;;;;;;;;;;4982435;28;19917;-80
2023/02/03 16:17:53;;;;;;;;;;;;;;;;;;4974203;28;19921;-86
2023/02/03 16:20:18;;;;;;;;;;;;;;;;;;4970586;28;19917;-85
2023/02/03 16:22:44;;;;;;;;;;;;;;;;;;4988683;28;20012;-85
2023/02/03 16:25:10;;;;;;;;;;;;;;;;;;4980395;28;20012;-85
2023/02/03 16:27:36;;;;;;;;;;;;;;;;;;4968976;28;19984;-84
2023/02/03 16:52:01;;;;;;;;;;;;;;;;;;4982336;28;19925;-83
2023/02/03 16:54:27;;;;;;;;;;;;;;;;;;4975281;28;20446;-82